Time;durP1;ratioP1;P1;durP2;ratioP2;P2;SDS_P1;SDS_P2;PMS_P1;PMS_P2;Temp;Humidity;BMP_temperature;BMP_pressure;BME280_temperature;BME280_humidity;BME280_pressure;Samples;Min_cycle;Max_cycle;Signal;HPM_P1;HPM_P2
2022/06/10 04:41:24;;;;;;;13.15;8.85;;;;;;;21.23;50.19;99840.16;1758697;81;21412;-49
2022/06/10 04:43:55;;;;;;;18.00;10.95;;;;;;;21.41;50.54;99837.05;1725028;81;21075;-42
2022/06/10 04:46:33;;;;;;;18.02;9.38;;;;;;;21.56;50.47;99847.35;1711006;81;21456;-41
2022/06/10 04:49:04;;;;;;;16.95;9.03;;;;;;;21.70;50.21;99849.69;1716044;81;21078;-41
2022/06/10 04:51:33;;;;;;;15.90;10.23;;;;;;;21.85;50.07;99847.14;1757084;81;21048;-42
2022/06/10 04:54:04;;;;;;;15.48;7.97;;;;;;;21.98;49.80;99850.42;1673708;84;21080;-48
2022/06/10 04:56:32;;;;;;;13.20;8.38;;;;;;;22.12;49.90;99847.02;1691166;82;21409;-49
2022/06/10 04:59:03;;;;;;;12.82;8.65;;;;;;;22.27;49.52;99848.00;1673429;84;21147;-48
2022/06/10 05:01:31;;;;;;;19.23;9.65;;;;;;;22.41;48.38;99844.56;1701442;82;21032;-42
2022/06/10 05:03:59;;;;;;;16.15;9.03;;;;;;;22.52;48.50;99840.34;1700984;84;21104;-48
2022/06/10 05:06:27;;;;;;;14.83;8.20;;;;;;;22.68;47.88;99856.34;1674791;82;21209;-41
2022/06/10 05:08:57;;;;;;;15.85;9.00;;;;;;;22.80;47.03;99849.45;1726723;81;21600;-41
2022/06/10 05:11:28;;;;;;;10.57;7.40;;;;;;;22.91;46.41;99851.05;1721246;82;21169;-42
2022/06/10 05:13:58;;;;;;;15.93;7.80;;;;;;;23.03;46.14;99853.48;1673901;84;21087;-48
2022/06/10 05:16:26;;;;;;;13.80;7.10;;;;;;;23.12;44.78;99847.59;1702056;82;21571;-47
2022/06/10 05:18:53;;;;;;;21.00;7.87;;;;;;;23.22;45.10;99845.25;1744159;82;21603;-50
2022/06/10 05:21:24;;;;;;;12.47;6.80;;;;;;;23.32;44.32;99852.62;1743973;82;21073;-41
2022/06/10 05:23:51;;;;;;;14.63;7.62;;;;;;;23.42;44.35;99855.58;1745252;82;21668;-43
2022/06/10 05:26:22;;;;;;;13.03;7.17;;;;;;;23.53;44.10;99849.13;1744613;82;21128;-43
2022/06/10 05:28:51;;;;;;;13.90;7.40;;;;;;;23.64;43.32;99849.84;1716639;82;21081;-42
2022/06/10 05:31:28;;;;;;;15.05;6.72;;;;;;;23.74;43.37;99851.48;1744354;81;21109;-43
2022/06/10 05:35:17;;;;;;;10.38;6.12;;;;;;;23.86;42.94;99842.71;1745870;82;21050;-49
2022/06/10 05:36:30;;;;;;;12.10;7.08;;;;;;;23.97;42.88;99844.23;1692770;82;21021;-43
2022/06/10 05:39:01;;;;;;;11.75;6.20;;;;;;;24.07;42.00;99849.88;1701171;84;21036;-42
2022/06/10 05:44:17;;;;;;;13.88;6.30;;;;;;;24.23;41.34;99847.08;1723523;83;21592;-42
2022/06/10 05:46:45;;;;;;;10.28;6.62;;;;;;;24.31;41.05;99846.98;1693045;83;21007;-43
2022/06/10 05:49:13;;;;;;;14.78;6.03;;;;;;;24.41;41.25;99845.92;1724214;83;21054;-50
2022/06/10 05:51:40;;;;;;;12.88;6.20;;;;;;;24.52;40.74;99847.43;1723927;83;21074;-44
2022/06/10 05:54:10;;;;;;;12.40;6.37;;;;;;;24.58;41.04;99844.36;1692787;83;21547;-49
2022/06/10 05:56:40;;;;;;;11.48;7.05;;;;;;;24.71;40.79;99859.63;1710243;83;21564;-49
2022/06/10 05:59:07;;;;;;;15.05;6.80;;;;;;;24.77;41.04;99849.39;1696826;83;21573;-49
2022/06/10 06:01:36;;;;;;;9.43;6.12;;;;;;;24.86;39.98;99854.59;1723982;83;21019;-42
2022/06/10 06:04:04;;;;;;;12.18;6.92;;;;;;;24.95;39.16;99859.35;1716451;83;21479;-42
2022/06/10 06:06:31;;;;;;;11.93;6.30;;;;;;;25.00;39.03;99853.22;1719067;82;21063;-45
2022/06/10 06:08:58;;;;;;;11.73;6.83;;;;;;;25.00;39.03;99853.22;1716145;82;21018;-49
2022/06/10 06:11:26;;;;;;;11.90;6.33;;;;;;;25.07;38.82;99846.52;1725119;82;21028;-42
2022/06/10 06:13:53;;;;;;;11.20;6.05;;;;;;;25.16;39.01;99854.39;1724085;83;21054;-49
2022/06/10 06:16:21;;;;;;;14.38;6.70;;;;;;;25.27;38.98;99853.19;1723631;83;21428;-43
2022/06/10 06:18:52;;;;;;;11.30;6.17;;;;;;;25.38;38.59;99845.77;1723572;83;21554;-49
2022/06/10 06:21:19;;;;;;;14.40;6.03;;;;;;;25.47;39.07;99851.85;1697027;82;21017;-44
2022/06/10 06:23:47;;;;;;;12.68;5.60;;;;;;;25.58;38.49;99846.61;1743291;82;21083;-43
2022/06/10 06:26:15;;;;;;;14.05;5.70;;;;;;;25.68;37.60;99852.17;1730665;82;21029;-43
2022/06/10 06:28:44;;;;;;;10.75;6.47;;;;;;;25.74;37.19;99851.77;1687671;83;21080;-43
2022/06/10 06:31:18;;;;;;;12.35;6.37;;;;;;;25.79;36.49;99844.28;1695958;83;21048;-49
2022/06/10 06:33:47;;;;;;;11.45;5.80;;;;;;;25.83;37.60;99843.11;1723182;83;21998;-52
2022/06/10 06:36:24;;;;;;;12.40;6.17;;;;;;;25.86;36.67;99842.91;1720851;83;21736;-42
2022/06/10 06:38:52;;;;;;;12.20;5.60;;;;;;;25.91;36.95;99843.41;1707264;83;21581;-49
2022/06/10 06:41:23;;;;;;;8.80;5.47;;;;;;;26.03;36.82;99845.70;1721931;82;21549;-43
2022/06/10 06:43:53;;;;;;;10.65;5.35;;;;;;;26.13;36.68;99840.06;1702961;82;21087;-43
2022/06/10 06:46:26;;;;;;;12.80;5.55;;;;;;;26.18;36.63;99837.06;1696005;82;21050;-51
2022/06/10 06:48:56;;;;;;;13.45;5.85;;;;;;;26.23;36.05;99843.81;1690413;82;21077;-49
2022/06/10 06:51:27;;;;;;;8.90;4.78;;;;;;;26.25;36.38;99839.18;1687306;82;21113;-43
2022/06/10 06:53:54;;;;;;;13.20;4.60;;;;;;;26.28;35.78;99843.48;1726657;82;21068;-45
2022/06/10 06:56:26;;;;;;;9.35;5.12;;;;;;;26.31;35.63;99841.91;1713194;82;21603;-49
2022/06/10 06:58:56;;;;;;;11.70;4.00;;;;;;;26.35;35.96;99836.70;1732630;82;21054;-43
2022/06/10 07:01:24;;;;;;;8.43;4.17;;;;;;;26.41;34.79;99840.31;1716087;82;21058;-49
2022/06/10 07:03:51;;;;;;;9.18;3.60;;;;;;;26.48;34.20;99841.56;1712004;82;21447;-43
2022/06/10 07:06:18;;;;;;;8.00;3.60;;;;;;;26.55;34.08;99845.14;1714389;82;21115;-49
2022/06/10 07:08:50;;;;;;;10.65;3.67;;;;;;;26.63;33.02;99837.41;1718700;83;21067;-49
2022/06/10 07:11:17;;;;;;;8.10;3.83;;;;;;;26.70;33.56;99835.48;1699259;83;21069;-50
2022/06/10 07:13:46;;;;;;;10.10;3.62;;;;;;;26.79;33.63;99832.63;1688602;82;21066;-49
2022/06/10 07:16:19;;;;;;;8.93;4.05;;;;;;;26.90;33.77;99835.81;1698460;82;21091;-43
2022/06/10 07:18:54;;;;;;;11.48;3.80;;;;;;;26.98;34.06;99833.44;1629888;85;21055;-51
2022/06/10 07:21:32;;;;;;;6.42;3.72;;;;;;;27.08;33.84;99841.20;1719767;83;21044;-49
2022/06/10 07:24:01;;;;;;;7.95;2.98;;;;;;;27.12;33.55;99842.66;1718554;82;21044;-49
2022/06/10 07:26:28;;;;;;;8.75;2.85;;;;;;;27.16;33.00;99840.61;1685378;83;21101;-51
2022/06/10 07:28:58;;;;;;;6.97;3.22;;;;;;;27.22;33.28;99838.31;1695712;83;21058;-49
2022/06/10 07:31:25;;;;;;;6.22;3.40;;;;;;;27.31;33.13;99836.28;1722017;83;21101;-43
2022/06/10 07:33:52;;;;;;;5.65;2.98;;;;;;;27.37;32.90;99840.33;1719259;83;21079;-43
2022/06/10 07:36:20;;;;;;;5.00;2.98;;;;;;;27.41;32.44;99843.61;1697411;83;21511;-49
2022/06/10 07:38:49;;;;;;;4.17;2.50;;;;;;;27.43;32.79;99841.19;1640259;85;21075;-50
2022/06/10 07:44:04;;;;;;;5.60;2.58;;;;;;;27.52;32.43;99832.41;1705459;83;21570;-43
2022/06/10 07:46:31;;;;;;;9.18;2.70;;;;;;;27.61;33.18;99835.37;1744973;82;21495;-50
2022/06/10 07:48:59;;;;;;;7.20;2.83;;;;;;;27.72;32.94;99836.77;1739529;82;21129;-49
2022/06/10 07:51:26;;;;;;;5.62;3.42;;;;;;;27.78;32.33;99836.28;1734545;81;20987;-50
2022/06/10 07:53:54;;;;;;;4.33;2.85;;;;;;;27.81;32.40;99837.36;1703290;81;21047;-43
2022/06/10 07:56:22;;;;;;;4.25;2.90;;;;;;;27.84;32.79;99839.83;1708362;82;21553;-50
2022/06/10 07:58:50;;;;;;;6.78;2.90;;;;;;;27.92;32.68;99849.47;1697806;83;21105;-45
2022/06/10 08:01:28;;;;;;;5.60;3.00;;;;;;;27.99;32.41;99838.59;1679661;83;21050;-42
2022/06/10 08:04:01;;;;;;;8.85;3.17;;;;;;;28.06;32.42;99843.87;1680441;83;21646;-43
2022/06/10 08:06:29;;;;;;;7.30;3.22;;;;;;;28.16;32.17;99846.66;1733804;81;21481;-45
2022/06/10 08:08:56;;;;;;;4.87;3.02;;;;;;;28.22;31.90;99843.97;1733679;82;21302;-50
2022/06/10 08:11:25;;;;;;;10.43;3.02;;;;;;;28.29;31.49;99835.77;1733801;82;21008;-44
2022/06/10 08:14:28;;;;;;;5.25;2.85;;;;;;;28.35;31.26;99845.59;1673531;84;21047;-43
2022/06/10 08:17:06;;;;;;;18.85;3.50;;;;;;;28.38;31.10;99848.51;1711671;81;21067;-52
2022/06/10 08:19:34;;;;;;;5.40;2.55;;;;;;;28.43;31.13;99838.23;1733802;81;21150;-43
2022/06/10 08:25:10;;;;;;;7.15;2.62;;;;;;;28.46;31.20;99846.53;1735642;81;21640;-46
2022/06/10 08:28:00;;;;;;;6.05;2.52;;;;;;;28.46;31.25;99845.19;1729901;81;21089;-47
2022/06/10 08:30:35;;;;;;;6.00;2.58;;;;;;;28.57;30.83;99846.52;1722128;82;22259;-44
2022/06/10 08:33:16;;;;;;;8.28;2.87;;;;;;;28.65;31.04;99844.06;1707780;81;21595;-37
2022/06/10 08:35:48;;;;;;;11.25;3.08;;;;;;;28.71;30.62;99845.41;1731785;81;21008;-39
2022/06/10 08:38:16;;;;;;;5.90;2.83;;;;;;;28.76;30.31;99847.19;1737203;81;21591;-45
2022/06/10 08:41:20;;;;;;;17.35;2.92;;;;;;;28.75;30.31;99849.52;1717581;83;21429;-45
2022/06/10 08:43:59;;;;;;;12.90;2.60;;;;;;;28.80;30.27;99844.62;1722949;81;21052;-45
2022/06/10 08:47:10;;;;;;;6.10;2.80;;;;;;;28.86;29.70;99846.31;1729055;82;21081;-45
2022/06/10 08:50:22;;;;;;;5.42;2.83;;;;;;;28.89;30.05;99847.91;1726116;82;21342;-45
2022/06/10 08:53:11;;;;;;;6.33;2.87;;;;;;;28.91;30.16;99851.31;1728620;82;21084;-45
2022/06/10 08:56:26;;;;;;;4.33;2.70;;;;;;;28.96;29.64;99846.94;1693297;83;21510;-39
2022/06/10 08:59:20;;;;;;;8.83;2.72;;;;;;;28.99;30.15;99855.63;1557595;91;21133;-38
2022/06/10 09:02:15;;;;;;;5.10;2.98;;;;;;;29.04;30.46;99841.75;1553205;91;21081;-44
2022/06/10 09:04:57;;;;;;;24.20;3.62;;;;;;;29.13;29.99;99843.68;1564843;90;21128;-45
2022/06/10 09:07:39;;;;;;;7.70;3.50;;;;;;;29.19;29.91;99853.94;1565568;90;21388;-38
2022/06/10 09:10:44;;;;;;;6.80;3.00;;;;;;;29.20;29.36;99843.52;1561810;90;21541;-38
2022/06/10 09:13:43;;;;;;;7.47;3.33;;;;;;;29.20;29.74;99846.20;1569475;90;21104;-39
2022/06/10 09:16:38;;;;;;;12.70;3.20;;;;;;;29.24;30.05;99849.51;1569120;90;21111;-38
2022/06/10 09:19:46;;;;;;;9.83;2.90;;;;;;;29.34;29.71;99853.11;1582735;85;21665;-38
2022/06/10 09:22:49;;;;;;;11.05;3.08;;;;;;;29.41;29.69;99851.13;1617557;87;21041;-38
2022/06/10 09:25:33;;;;;;;10.05;3.83;;;;;;;29.48;29.63;99854.64;1610163;87;21615;-38
2022/06/10 09:28:01;;;;;;;6.47;2.98;;;;;;;29.57;29.68;99842.63;1607251;89;21047;-38
2022/06/10 09:30:43;;;;;;;9.33;2.60;;;;;;;29.56;29.26;99850.81;1608543;87;22161;-38
2022/06/10 09:33:21;;;;;;;9.98;3.05;;;;;;;29.60;29.56;99851.77;1630196;86;21052;-38
2022/06/10 09:36:22;;;;;;;8.18;2.90;;;;;;;29.67;29.81;99851.59;1697621;82;21168;-38
2022/06/10 09:39:06;;;;;;;4.60;2.70;;;;;;;29.73;29.93;99857.45;1692848;83;21654;-39
2022/06/10 09:41:51;;;;;;;7.25;2.95;;;;;;;29.69;30.13;99851.48;1696588;82;21001;-41
2022/06/10 09:44:44;;;;;;;5.25;2.90;;;;;;;29.68;29.35;99847.06;1678325;85;21104;-38
2022/06/10 09:47:28;;;;;;;4.80;2.58;;;;;;;29.73;29.76;99850.71;1716455;83;21095;-38
2022/06/10 09:50:27;;;;;;;7.03;2.80;;;;;;;29.83;29.42;99854.33;1683298;83;21068;-45
2022/06/10 09:53:14;;;;;;;15.15;2.70;;;;;;;29.85;28.83;99852.34;1737132;81;21552;-45
2022/06/10 10:00:02;;;;;;;4.70;2.30;;;;;;;29.83;29.07;99851.13;1740973;81;21911;-41
2022/06/10 10:02:51;;;;;;;4.35;2.37;;;;;;;29.81;29.04;99841.48;1698039;84;21076;-40
2022/06/10 10:05:35;;;;;;;10.48;2.58;;;;;;;29.78;29.91;99841.23;1669957;86;21136;-39
2022/06/10 10:08:34;;;;;;;3.87;2.12;;;;;;;29.77;29.88;99843.58;1644634;86;21127;-39
2022/06/10 10:11:27;;;;;;;5.95;2.22;;;;;;;29.72;30.34;99847.66;1629450;87;21060;-41
2022/06/10 10:14:11;;;;;;;9.95;2.67;;;;;;;29.68;29.94;99841.67;1637716;87;21642;-46
2022/06/10 10:16:54;;;;;;;7.90;2.65;;;;;;;29.67;29.64;99840.81;1646943;87;21012;-40
2022/06/10 10:19:52;;;;;;;3.92;2.35;;;;;;;29.66;30.52;99839.12;1621436;88;21084;-44
2022/06/10 10:22:54;;;;;;;12.28;2.33;;;;;;;29.66;30.42;99836.92;1631409;88;21036;-40
2022/06/10 10:25:24;;;;;;;6.72;2.22;;;;;;;29.76;28.94;99828.89;1604579;88;21295;-39
2022/06/10 10:27:51;;;;;;;3.33;2.02;;;;;;;29.76;28.94;99828.89;1632490;87;21560;-39
2022/06/10 10:30:45;;;;;;;4.12;1.90;;;;;;;29.86;29.48;99832.00;1631989;88;21108;-39
2022/06/10 10:33:14;;;;;;;6.47;2.17;;;;;;;30.04;29.73;99833.58;1631088;88;21033;-46
2022/06/10 10:35:51;;;;;;;11.12;2.37;;;;;;;30.33;28.92;99835.55;1631065;88;21493;-46
2022/06/10 10:38:37;;;;;;;6.15;2.40;;;;;;;30.60;28.61;99830.84;1632805;87;21618;-46
2022/06/10 10:41:35;;;;;;;6.90;2.45;;;;;;;30.84;28.62;99822.38;1637265;87;21256;-46
2022/06/10 10:44:10;;;;;;;5.62;1.95;;;;;;;31.12;27.92;99820.18;1615467;87;21114;-47
2022/06/10 10:46:45;;;;;;;6.08;2.27;;;;;;;31.20;27.46;99824.39;1634006;87;21584;-39
2022/06/10 10:49:29;;;;;;;4.37;2.30;;;;;;;31.27;27.71;99825.20;1731761;82;21056;-40
2022/06/10 10:51:56;;;;;;;6.78;2.10;;;;;;;31.25;27.67;99816.74;1643862;85;21650;-38
2022/06/10 10:54:28;;;;;;;11.30;1.80;;;;;;;31.35;27.24;99815.86;1706727;84;21584;-45
2022/06/10 10:56:55;;;;;;;9.33;2.50;;;;;;;31.43;27.41;99811.45;1722862;82;21582;-44
2022/06/10 10:59:39;;;;;;;6.28;2.77;;;;;;;31.43;27.47;99814.16;1690728;85;22016;-45
2022/06/10 11:02:37;;;;;;;8.60;1.85;;;;;;;31.45;27.24;99810.80;1707102;84;21523;-44
2022/06/10 11:05:35;;;;;;;5.00;1.45;;;;;;;31.40;27.51;99813.58;1706987;84;21123;-44
2022/06/10 11:08:22;;;;;;;9.40;1.60;;;;;;;31.39;27.05;99811.37;1700870;84;21049;-38
2022/06/10 11:11:35;;;;;;;5.25;1.60;;;;;;;31.40;26.66;99802.27;1752558;82;20961;-44
2022/06/10 11:14:07;;;;;;;4.90;1.50;;;;;;;31.46;27.10;99811.14;1755659;82;21102;-46
2022/06/10 11:16:42;;;;;;;4.65;1.70;;;;;;;31.53;26.53;99804.14;1664900;85;21033;-38
2022/06/10 11:19:29;;;;;;;8.15;2.02;;;;;;;31.53;26.90;99796.54;1680262;81;21559;-45
2022/06/10 11:22:20;;;;;;;6.45;2.02;;;;;;;31.59;27.28;99797.80;1692764;84;21544;-45
2022/06/10 11:25:06;;;;;;;6.67;2.10;;;;;;;31.63;27.25;99798.72;1728435;83;21046;-46
2022/06/10 11:27:39;;;;;;;3.15;1.40;;;;;;;31.60;27.13;99800.86;1732449;82;21016;-38
2022/06/10 11:30:18;;;;;;;5.95;2.22;;;;;;;31.50;27.33;99804.45;1683396;84;22433;-46
2022/06/10 11:33:01;;;;;;;3.87;1.70;;;;;;;31.33;26.89;99796.25;1673418;84;21080;-44
2022/06/10 11:35:39;;;;;;;4.28;1.98;;;;;;;31.23;26.88;99798.42;1710924;81;21676;-45
2022/06/10 11:38:29;;;;;;;4.78;1.87;;;;;;;31.16;27.25;99799.15;1714395;82;21504;-38
2022/06/10 11:41:01;;;;;;;;;;;;;;;31.02;27.34;99807.17;1699553;84;21443;-45
2022/06/10 11:43:39;;;;;;;6.83;1.72;;;;;;;30.85;27.96;99802.01;1704482;83;20538;-45
2022/06/10 11:46:27;;;;;;;6.87;1.90;;;;;;;30.79;27.78;99797.64;1673161;84;21037;-38
2022/06/10 11:49:18;;;;;;;1.92;1.30;;;;;;;30.82;28.77;99808.17;1729808;83;21076;-45
2022/06/10 11:52:18;;;;;;;2.98;1.47;;;;;;;30.76;27.97;99803.34;1731142;83;21515;-45
2022/06/10 11:54:58;;;;;;;4.10;1.93;;;;;;;30.67;27.65;99801.83;1700796;83;21190;-39
2022/06/10 12:00:38;;;;;;;4.37;1.87;;;;;;;30.59;28.04;99796.76;1731682;82;21119;-39
2022/06/10 12:06:57;;;;;;;3.65;2.00;;;;;;;30.63;27.92;99795.49;1744575;82;21614;-37
2022/06/10 12:09:39;;;;;;;2.90;1.65;;;;;;;30.62;27.69;99799.19;1722985;82;21062;-39
2022/06/10 12:12:22;;;;;;;2.65;1.65;;;;;;;30.60;28.50;99800.66;1750529;81;21042;-44
2022/06/10 12:14:54;;;;;;;7.12;2.00;;;;;;;30.52;27.98;99799.16;1750361;82;21050;-38
2022/06/10 12:17:39;;;;;;;5.15;1.95;;;;;;;30.50;28.43;99802.98;1726294;82;21104;-38
2022/06/10 12:20:42;;;;;;;5.42;2.00;;;;;;;30.53;28.54;99803.56;1718937;82;21454;-38
2022/06/10 12:23:18;;;;;;;13.62;2.22;;;;;;;30.57;28.18;99799.60;1735709;81;21417;-38
2022/06/10 12:26:00;;;;;;;11.30;2.22;;;;;;;30.59;27.70;99791.36;1718890;81;21607;-38
2022/06/10 12:28:46;;;;;;;6.12;2.05;;;;;;;30.62;28.64;99795.14;1740639;81;21481;-38
2022/06/10 12:31:31;;;;;;;8.90;1.92;;;;;;;30.64;27.84;99789.09;1737800;82;21180;-38
2022/06/10 12:34:31;;;;;;;4.95;2.45;;;;;;;30.70;27.99;99788.06;1727086;82;21136;-46
2022/06/10 12:37:06;;;;;;;8.90;2.35;;;;;;;30.74;28.52;99788.64;1742856;81;21040;-45
2022/06/10 12:40:00;;;;;;;5.72;2.67;;;;;;;30.75;28.29;99796.25;1716891;81;28227;-45
2022/06/10 12:42:57;;;;;;;5.55;2.50;;;;;;;30.70;27.50;99792.61;1759915;81;21020;-45
2022/06/10 12:45:41;;;;;;;6.85;2.37;;;;;;;30.67;27.93;99792.84;1759523;81;21139;-38
2022/06/10 12:48:15;;;;;;;5.28;2.72;;;;;;;30.58;27.65;99789.66;1756800;81;21088;-39
2022/06/10 12:55:06;;;;;;;7.85;2.58;;;;;;;30.32;29.07;99804.14;1747638;81;21091;-45
2022/06/10 12:57:44;;;;;;;4.22;2.00;;;;;;;30.11;28.22;99801.05;1693864;83;21041;-38
2022/06/10 13:00:40;;;;;;;8.78;2.30;;;;;;;29.92;28.83;99811.74;1663040;85;21161;-40
2022/06/10 13:03:23;;;;;;;3.08;2.00;;;;;;;29.84;29.01;99815.59;1698700;83;21006;-39
2022/06/10 13:05:50;;;;;;;2.77;2.33;;;;;;;29.85;29.36;99818.64;1696794;83;21064;-45
2022/06/10 13:08:39;;;;;;;5.22;2.00;;;;;;;29.89;29.01;99821.44;1724088;83;21043;-38
2022/06/10 13:11:10;;;;;;;8.23;2.40;;;;;;;29.89;28.78;99825.48;1698623;83;20998;-43
2022/06/10 13:13:37;;;;;;;6.33;2.30;;;;;;;29.83;29.21;99828.22;1712720;83;21620;-45
2022/06/10 13:16:38;;;;;;;7.12;2.58;;;;;;;29.83;28.90;99825.52;1743298;82;20989;-45
2022/06/10 13:19:23;;;;;;;8.35;2.70;;;;;;;29.83;28.93;99820.13;1729097;82;21156;-39
2022/06/10 13:21:53;;;;;;;7.85;3.20;;;;;;;29.77;29.38;99821.16;1754001;82;21040;-40
2022/06/10 13:24:22;;;;;;;6.42;2.40;;;;;;;29.74;29.46;99822.77;1729194;82;21053;-39
2022/06/10 13:27:11;;;;;;;6.15;2.60;;;;;;;29.76;29.79;99812.23;1706912;82;21065;-45
2022/06/10 13:29:54;;;;;;;9.03;2.40;;;;;;;29.77;30.03;99814.42;1750418;81;21121;-39
2022/06/10 13:32:42;;;;;;;6.17;2.77;;;;;;;29.78;29.48;99814.78;1702861;84;21149;-45
2022/06/10 13:36:16;;;;;;;8.38;2.40;;;;;;;29.80;29.88;99811.44;1724758;80;21111;-45
2022/06/10 13:39:04;;;;;;;5.55;2.10;;;;;;;29.82;30.23;99812.19;1739938;81;21131;-45
2022/06/10 13:41:54;;;;;;;9.80;2.50;;;;;;;29.83;29.58;99802.61;1749543;82;20953;-41
2022/06/10 13:44:48;;;;;;;6.62;2.67;;;;;;;29.85;29.64;99806.01;1723538;83;21580;-45
2022/06/10 13:47:34;;;;;;;4.28;2.50;;;;;;;29.86;29.99;99797.42;1744918;80;21445;-39
2022/06/10 13:52:59;;;;;;;6.47;2.65;;;;;;;29.79;31.37;99794.42;1785118;80;21101;-46
2022/06/10 13:55:35;;;;;;;7.53;2.75;;;;;;;29.78;31.23;99790.52;1784626;80;21061;-39
2022/06/10 13:58:18;;;;;;;5.28;2.55;;;;;;;29.75;30.58;99795.70;1733925;80;21595;-39
2022/06/10 14:00:55;;;;;;;6.95;2.42;;;;;;;29.74;30.44;99791.77;1785129;80;21489;-46
2022/06/10 14:03:33;;;;;;;9.00;2.75;;;;;;;29.72;30.25;99785.66;1784975;80;21141;-39
2022/06/10 14:06:25;;;;;;;11.45;2.70;;;;;;;29.70;30.42;99787.16;1785229;80;21029;-39
2022/06/10 14:09:22;;;;;;;5.20;2.10;;;;;;;29.71;30.61;99785.31;1785082;80;21037;-45
2022/06/10 14:12:21;;;;;;;6.97;2.40;;;;;;;29.68;30.69;99782.38;1773744;80;20993;-38
2022/06/10 14:14:48;;;;;;;5.85;2.20;;;;;;;29.66;30.56;99785.22;1732769;80;21095;-38
